Ocracoke, NC

6:27 PM EDT on August 30, 2014 (GMT -0400)
Sandbaggas | Change Station
CLOSE
Current Station
Personal Weather Station
Location: Hatteras, NC
Elevation: 16 ft
Nearby Weather Stations

Elev 16 ft 35.21 °N, 75.70 °W | Updated 10 minutes ago

Clear
Clear
87.4 °F
Feels Like 95 °F
N
1.7
Wind Variable Wind from ENE

Today
High -- | Low -- °F
--% Chance of Precip.
Yesterday
High -- | Low -- °F
Precip. -- in
6:35 AM 7:33 PM
Waxing Crescent, 25% visible
Pressure 30.17 in
Visibility 10.0 miles
Clouds Clear
Heat Index 95 °F
Dew Point 73 °F
Humidity 63%
Rainfall 0.00 in
Snow Depth Not available.
UV 6 out of 12
Pollen 8.80 out of 12
Air Quality Not available.
Flu Activity Not available.
METAR KHSE 301951Z AUTO 20006KT 10SM CLR 28/23 A3017 RMK AO2 SLP216 T02830228 TSNO

More Conditions Fewer Conditions

Pressure 30.17 in
Visibility 10.0 miles
Clouds Clear
Heat Index 95 °F
Dew Point 73 °F
Humidity 63%
Rainfall 0.00 in
Snow Depth Not available.
UV 6 out of 12
Pollen 8.80 out of 12
Air Quality Not available.
Flu Activity Not available.
METAR KHSE 301951Z AUTO 20006KT 10SM CLR 28/23 A3017 RMK AO2 SLP216 T02830228 TSNO

More Conditions Fewer Conditions

10-Day Weather Forecast

Almanac

Astronomy

Aug. 30, 2014 Rise Set
Actual Time 6:35 AM EDT 7:33 PM EDT
Civil Twilight 6:09 AM EDT 7:59 PM EDT
Nautical Twilight 5:38 AM EDT 8:30 PM EDT
Astronomical Twilight 5:06 AM EDT 9:01 PM EDT
Moon 11:08 AM EDT 10:18 PM EDT
Length of Visible Light 13h 50m
Length of Day
12h 58m
Tomorrow will be 2m 5s shorter.
Waxing Crescent, 25% of the Moon is Illuminated
Today
Waxing Crescent
Sep 2
First Quarter
Sep 8
Full
Sep 15
Last Quarter
Sep 24
New

Today's Extremes

State Highs State Lows

Community

WunderPhotos

Upload Photos

1,748,657 photos uploaded!

WunderBlogs® & News

Nearby

Snow Depth

Station Depth Elevation
No new snow has been reported.

Earthquake Activity

City Distance Mag. Time & Date
No recent earthquake activity has been reported nearby.
Minimum magnitude displayed is 2.5.

Coastal Water Temperatures

Place Temperature
Beaufort, NC 82.0 °F
Hatteras, NC 82.0 °F
Oregon Inlet Marina, NC 78.1 °F
Duck Pier, NC 79.0 °F
Johnny Mercer Pier, Wrightsville Beach, NC 84.9 °F

Nearby Weather Stations